Reno, NV

2:41 AM PDT on September 22, 2014 (GMT -0700)
Rolling Hills - Galena | Change Station
CLOSE
Current Station
Personal Weather Station
Location: Reno, NV
Elevation: 5112 ft
Nearby Weather Stations
Active Advisory: Dense Smoke Advisory

Elev 5112 ft 39.39 °N, 119.79 °W | Updated 8 seconds ago

Partly Cloudy
Partly Cloudy
56.7 °F
Feels Like 56.7 °F
N
5.1
Wind Variable Wind from SSW
Gusts 5.4 mph

Today
High -- | Low -- °F
--% Chance of Precip.
Yesterday
High -- | Low -- °F
Precip. -- in
6:46 AM 6:55 PM
Waning Crescent, 3% visible
Pressure 30.02 in
Visibility 8.0 miles
Clouds Clear
Dew Point 40 °F
Humidity 54%
Rainfall 0.00 in
Snow Depth 1 in , 0 in
UV 0 out of 12
Pollen 6.20 out of 12
Air Quality Not available.
Flu Activity Not available.
METAR KRNO 220855Z 00000KT 8SM CLR 14/07 A3014 RMK AO2 SLP165 FU ALQDS T01440067 53006

More Conditions Fewer Conditions

Pressure 30.02 in
Visibility 8.0 miles
Clouds Clear
Dew Point 40 °F
Humidity 54%
Rainfall 0.00 in
Snow Depth 1 in , 0 in
UV 0 out of 12
Pollen 6.20 out of 12
Air Quality Not available.
Flu Activity Not available.
METAR KRNO 220855Z 00000KT 8SM CLR 14/07 A3014 RMK AO2 SLP165 FU ALQDS T01440067 53006

More Conditions Fewer Conditions

10-Day Weather Forecast

Almanac

Astronomy

Sep. 22, 2014 Rise Set
Actual Time 6:46 AM PDT 6:55 PM PDT
Civil Twilight 6:19 AM PDT 7:22 PM PDT
Nautical Twilight 5:48 AM PDT 7:53 PM PDT
Astronomical Twilight 5:16 AM PDT 8:25 PM PDT
Moon 5:20 AM PDT 6:05 PM PDT
Length of Visible Light 13h 02m
Length of Day
12h 09m
Tomorrow will be 2m 33s shorter.
Waning Crescent, 3% of the Moon is Illuminated
Today
Waning Crescent
Sep 24
New
Oct 1
First Quarter
Oct 8
Full
Oct 15
Last Quarter

Today's Extremes

State Highs State Lows

Community

WunderPhotos

Upload Photos

1,755,400 photos uploaded!

Nearby

Snow Depth

Station Depth Elevation
Ward Mountain 0 in 9200 ft
Corral Canyon 0 in 8500 ft
Seventysix Creek 0 in 7100 ft
Sheldon 0 in 5860 ft
Jack Creek Upper 1 in 7250 ft

Earthquake Activity

City Distance Mag. Time & Date
Gabbs, Nevada 91 miles 3.3 4:37 AM PDT
2014-09-19
Livermore, California 158 miles 2.6 3:37 AM PDT
2014-09-19
Minimum magnitude displayed is 2.5.

Coastal Water Temperatures

Place Temperature
No Stations Reporting

Nearby Weather Stations